Foxholm, North Dakota
Current Conditions -  °F | °C
As of 9:58 PM on Monday 22 Dec 2014 (Local Time) from KMIB Reporting Station
Freezing Drizzle Freezing Drizzle  
Wind Chill: 19°   Ceiling: 300
Heat Index: 30°   Visibility: 10mi
Dew Point: 30°   Wind: 14mph
Humidity: 100%   Direction: 360°N
Pressure: 29.81"   Gusts: NA
Location:  48.3281°N, 101.856°W
Report Text: KMIB 230358Z AUTO 36012KT 10SM -FZDZ OVC003 M01/M01 A2981 RMK AO2 DZB0318DZB0311E0318 SLP120 P0000 T10131013 $
Loading
Personal Weather Stations






























Interactive Weather Map New forecast layout! Learn more

10-Day Weather Forecast

Advertisements
Track Severe Weather on mobile